sensor_id;sensor_type;location;lat;lon;timestamp;pressure;altitude;pressure_sealevel;temperature;humidity
29879;BME280;16752;53.364;-1.488;2023-04-22T00:01:06;99671.53;;;17.41;47.86
29879;BME280;16752;53.364;-1.488;2023-04-22T00:03:50;99622.00;;;17.18;47.72
29879;BME280;16752;53.364;-1.488;2023-04-22T00:06:34;99629.63;;;17.21;47.71
29879;BME280;16752;53.364;-1.488;2023-04-22T00:09:18;99621.50;;;17.22;47.77
29879;BME280;16752;53.364;-1.488;2023-04-22T00:12:03;99663.09;;;17.46;48.11
29879;BME280;16752;53.364;-1.488;2023-04-22T00:14:46;99660.16;;;17.57;47.93
29879;BME280;16752;53.364;-1.488;2023-04-22T00:17:31;99674.41;;;17.64;47.78
29879;BME280;16752;53.364;-1.488;2023-04-22T00:20:17;99627.69;;;17.39;48.03
29879;BME280;16752;53.364;-1.488;2023-04-22T00:23:04;99680.44;;;17.83;47.54
29879;BME280;16752;53.364;-1.488;2023-04-22T00:25:48;99665.75;;;17.38;48.71
29879;BME280;16752;53.364;-1.488;2023-04-22T00:28:32;99618.91;;;17.47;48.11
29879;BME280;16752;53.364;-1.488;2023-04-22T00:31:16;99590.91;;;17.28;48.00
29879;BME280;16752;53.364;-1.488;2023-04-22T00:34:00;99572.38;;;17.20;47.79
29879;BME280;16752;53.364;-1.488;2023-04-22T00:36:44;99600.16;;;17.24;48.33
29879;BME280;16752;53.364;-1.488;2023-04-22T00:39:29;99579.19;;;17.38;47.73
29879;BME280;16752;53.364;-1.488;2023-04-22T00:42:13;99616.09;;;17.40;48.13
29879;BME280;16752;53.364;-1.488;2023-04-22T00:44:57;99573.03;;;17.30;48.24
29879;BME280;16752;53.364;-1.488;2023-04-22T00:47:43;99567.44;;;17.41;47.76
29879;BME280;16752;53.364;-1.488;2023-04-22T00:50:27;99591.78;;;17.53;47.80
29879;BME280;16752;53.364;-1.488;2023-04-22T00:53:11;99582.84;;;17.46;48.13
29879;BME280;16752;53.364;-1.488;2023-04-22T00:55:55;99570.91;;;17.41;48.21
29879;BME280;16752;53.364;-1.488;2023-04-22T00:58:39;99549.53;;;17.35;48.15
29879;BME280;16752;53.364;-1.488;2023-04-22T01:01:23;99557.19;;;17.46;48.34
29879;BME280;16752;53.364;-1.488;2023-04-22T01:04:08;99565.66;;;17.58;47.99
29879;BME280;16752;53.364;-1.488;2023-04-22T01:06:55;99540.31;;;17.47;48.17
29879;BME280;16752;53.364;-1.488;2023-04-22T01:09:39;99541.63;;;17.51;48.20
29879;BME280;16752;53.364;-1.488;2023-04-22T01:12:24;99517.81;;;17.43;48.21
29879;BME280;16752;53.364;-1.488;2023-04-22T01:15:08;99497.94;;;17.31;48.08
29879;BME280;16752;53.364;-1.488;2023-04-22T01:17:53;99544.78;;;17.63;48.24
29879;BME280;16752;53.364;-1.488;2023-04-22T01:20:37;99516.97;;;17.42;48.24
29879;BME280;16752;53.364;-1.488;2023-04-22T01:23:21;99502.41;;;17.47;48.13
29879;BME280;16752;53.364;-1.488;2023-04-22T01:26:05;99536.34;;;17.43;48.82
29879;BME280;16752;53.364;-1.488;2023-04-22T01:28:49;99475.91;;;17.30;48.12
29879;BME280;16752;53.364;-1.488;2023-04-22T01:31:33;99508.88;;;17.60;48.12
29879;BME280;16752;53.364;-1.488;2023-04-22T01:34:18;99499.09;;;17.53;48.25
29879;BME280;16752;53.364;-1.488;2023-04-22T01:37:02;99524.59;;;17.62;48.47
29879;BME280;16752;53.364;-1.488;2023-04-22T01:39:46;99530.56;;;17.80;48.02
29879;BME280;16752;53.364;-1.488;2023-04-22T01:42:31;99512.53;;;17.67;48.24
29879;BME280;16752;53.364;-1.488;2023-04-22T01:45:15;99483.34;;;17.35;48.47
29879;BME280;16752;53.364;-1.488;2023-04-22T01:48:00;99492.63;;;17.55;48.27
29879;BME280;16752;53.364;-1.488;2023-04-22T01:50:44;99494.13;;;17.50;48.45
29879;BME280;16752;53.364;-1.488;2023-04-22T01:53:28;99496.94;;;17.64;48.04
29879;BME280;16752;53.364;-1.488;2023-04-22T01:56:12;99494.28;;;17.56;48.00
29879;BME280;16752;53.364;-1.488;2023-04-22T01:58:56;99523.75;;;17.78;48.16
29879;BME280;16752;53.364;-1.488;2023-04-22T02:01:40;99511.84;;;17.74;48.48
29879;BME280;16752;53.364;-1.488;2023-04-22T02:04:24;99425.47;;;17.24;48.13
29879;BME280;16752;53.364;-1.488;2023-04-22T02:07:08;99499.59;;;17.64;48.08
29879;BME280;16752;53.364;-1.488;2023-04-22T02:09:52;99513.50;;;17.75;48.13
29879;BME280;16752;53.364;-1.488;2023-04-22T02:12:36;99488.34;;;17.62;48.34
29879;BME280;16752;53.364;-1.488;2023-04-22T02:15:20;99510.50;;;17.78;48.18
29879;BME280;16752;53.364;-1.488;2023-04-22T02:18:06;99501.25;;;17.74;48.20
29879;BME280;16752;53.364;-1.488;2023-04-22T02:20:50;99449.63;;;17.45;48.39
29879;BME280;16752;53.364;-1.488;2023-04-22T02:23:35;99456.06;;;17.51;47.82
29879;BME280;16752;53.364;-1.488;2023-04-22T02:26:19;99436.22;;;17.38;48.12
29879;BME280;16752;53.364;-1.488;2023-04-22T02:29:03;99478.72;;;17.61;48.20
29879;BME280;16752;53.364;-1.488;2023-04-22T02:31:47;99489.16;;;17.71;48.29
29879;BME280;16752;53.364;-1.488;2023-04-22T02:34:31;99424.47;;;17.41;48.26
29879;BME280;16752;53.364;-1.488;2023-04-22T02:37:15;99471.09;;;17.66;48.17
29879;BME280;16752;53.364;-1.488;2023-04-22T02:39:59;99427.44;;;17.46;48.09
29879;BME280;16752;53.364;-1.488;2023-04-22T02:42:43;99422.31;;;17.45;48.18
29879;BME280;16752;53.364;-1.488;2023-04-22T02:45:27;99402.97;;;17.11;48.33
29879;BME280;16752;53.364;-1.488;2023-04-22T02:48:11;99399.00;;;17.24;48.32
29879;BME280;16752;53.364;-1.488;2023-04-22T02:50:55;99446.16;;;17.28;49.39
29879;BME280;16752;53.364;-1.488;2023-04-22T02:53:39;99434.75;;;17.36;48.53
29879;BME280;16752;53.364;-1.488;2023-04-22T02:56:24;99453.59;;;17.41;48.58
29879;BME280;16752;53.364;-1.488;2023-04-22T02:59:09;99458.69;;;17.51;48.52
29879;BME280;16752;53.364;-1.488;2023-04-22T03:01:53;99385.13;;;17.05;48.43
29879;BME280;16752;53.364;-1.488;2023-04-22T03:04:37;99420.19;;;17.24;48.82
29879;BME280;16752;53.364;-1.488;2023-04-22T03:07:21;99371.53;;;17.08;48.24
29879;BME280;16752;53.364;-1.488;2023-04-22T03:10:06;99445.28;;;17.52;48.43
29879;BME280;16752;53.364;-1.488;2023-04-22T03:12:50;99362.47;;;16.95;48.38
29879;BME280;16752;53.364;-1.488;2023-04-22T03:15:34;99386.44;;;17.26;48.30
29879;BME280;16752;53.364;-1.488;2023-04-22T03:18:18;99421.31;;;17.46;48.16
29879;BME280;16752;53.364;-1.488;2023-04-22T03:21:02;99354.88;;;17.00;48.53
29879;BME280;16752;53.364;-1.488;2023-04-22T03:23:47;99386.91;;;17.37;48.43
29879;BME280;16752;53.364;-1.488;2023-04-22T03:26:31;99341.94;;;17.05;48.26
29879;BME280;16752;53.364;-1.488;2023-04-22T03:29:15;99336.38;;;16.92;48.52
29879;BME280;16752;53.364;-1.488;2023-04-22T03:31:59;99331.69;;;17.10;47.95
29879;BME280;16752;53.364;-1.488;2023-04-22T03:34:43;99313.69;;;16.81;48.76
29879;BME280;16752;53.364;-1.488;2023-04-22T03:37:27;99355.97;;;17.30;48.27
29879;BME280;16752;53.364;-1.488;2023-04-22T03:40:11;99287.72;;;17.01;48.01
29879;BME280;16752;53.364;-1.488;2023-04-22T03:42:56;99298.16;;;16.70;49.23
29879;BME280;16752;53.364;-1.488;2023-04-22T03:45:40;99379.47;;;17.41;48.17
29879;BME280;16752;53.364;-1.488;2023-04-22T03:48:25;99334.16;;;17.11;48.50
29879;BME280;16752;53.364;-1.488;2023-04-22T03:51:08;99247.72;;;16.63;48.76
29879;BME280;16752;53.364;-1.488;2023-04-22T03:53:53;99292.19;;;17.00;48.51
29879;BME280;16752;53.364;-1.488;2023-04-22T03:56:37;99310.03;;;16.90;48.97
29879;BME280;16752;53.364;-1.488;2023-04-22T03:59:21;99274.69;;;16.83;48.56
29879;BME280;16752;53.364;-1.488;2023-04-22T04:02:05;99320.78;;;17.05;48.67
29879;BME280;16752;53.364;-1.488;2023-04-22T04:04:50;99324.75;;;17.17;48.84
29879;BME280;16752;53.364;-1.488;2023-04-22T04:07:34;99337.44;;;17.38;48.33
29879;BME280;16752;53.364;-1.488;2023-04-22T04:10:17;99334.97;;;17.36;48.38
29879;BME280;16752;53.364;-1.488;2023-04-22T04:13:01;99289.69;;;17.15;48.39
29879;BME280;16752;53.364;-1.488;2023-04-22T04:15:45;99330.78;;;17.50;48.17
29879;BME280;16752;53.364;-1.488;2023-04-22T04:18:29;99285.19;;;17.24;47.99
29879;BME280;16752;53.364;-1.488;2023-04-22T04:21:13;99321.88;;;17.43;48.28
29879;BME280;16752;53.364;-1.488;2023-04-22T04:23:58;99235.66;;;16.85;48.38
29879;BME280;16752;53.364;-1.488;2023-04-22T04:26:42;99228.25;;;16.56;49.08
29879;BME280;16752;53.364;-1.488;2023-04-22T04:29:26;99268.41;;;16.92;48.46
29879;BME280;16752;53.364;-1.488;2023-04-22T04:32:10;99223.75;;;16.89;48.17
29879;BME280;16752;53.364;-1.488;2023-04-22T04:34:54;99301.41;;;17.21;48.59
29879;BME280;16752;53.364;-1.488;2023-04-22T04:37:41;99228.38;;;16.87;48.73
29879;BME280;16752;53.364;-1.488;2023-04-22T04:40:25;99278.91;;;17.25;48.28
29879;BME280;16752;53.364;-1.488;2023-04-22T04:43:11;99212.47;;;17.03;48.02
29879;BME280;16752;53.364;-1.488;2023-04-22T04:45:57;99265.31;;;17.36;47.88
29879;BME280;16752;53.364;-1.488;2023-04-22T04:48:41;99273.91;;;17.38;48.21
29879;BME280;16752;53.364;-1.488;2023-04-22T04:51:26;99202.91;;;16.94;48.22
29879;BME280;16752;53.364;-1.488;2023-04-22T04:54:10;99205.13;;;16.66;48.82
29879;BME280;16752;53.364;-1.488;2023-04-22T04:56:54;99231.72;;;16.73;48.75
29879;BME280;16752;53.364;-1.488;2023-04-22T04:59:40;99217.19;;;16.53;48.83
29879;BME280;16752;53.364;-1.488;2023-04-22T05:02:24;99260.09;;;17.03;48.33
29879;BME280;16752;53.364;-1.488;2023-04-22T05:05:09;99279.03;;;17.39;48.36
29879;BME280;16752;53.364;-1.488;2023-04-22T05:07:53;99250.25;;;17.28;48.22
29879;BME280;16752;53.364;-1.488;2023-04-22T05:10:37;99214.13;;;17.04;48.11
29879;BME280;16752;53.364;-1.488;2023-04-22T05:13:21;99258.03;;;17.38;48.09
29879;BME280;16752;53.364;-1.488;2023-04-22T05:16:05;99280.50;;;17.42;48.26
29879;BME280;16752;53.364;-1.488;2023-04-22T05:18:49;99184.38;;;17.02;48.15
29879;BME280;16752;53.364;-1.488;2023-04-22T05:21:33;99201.53;;;17.06;48.08
29879;BME280;16752;53.364;-1.488;2023-04-22T05:24:17;99195.91;;;17.09;48.00
29879;BME280;16752;53.364;-1.488;2023-04-22T05:27:01;99270.50;;;17.60;48.18
29879;BME280;16752;53.364;-1.488;2023-04-22T05:29:45;99210.22;;;17.31;47.92
29879;BME280;16752;53.364;-1.488;2023-04-22T05:32:29;99213.38;;;17.27;48.22
29879;BME280;16752;53.364;-1.488;2023-04-22T05:35:13;99193.56;;;17.23;47.85
29879;BME280;16752;53.364;-1.488;2023-04-22T05:37:57;99255.09;;;17.64;47.69
29879;BME280;16752;53.364;-1.488;2023-04-22T05:40:41;99233.63;;;17.51;47.95
29879;BME280;16752;53.364;-1.488;2023-04-22T05:43:25;99214.00;;;17.37;47.92
29879;BME280;16752;53.364;-1.488;2023-04-22T05:46:09;99203.09;;;17.32;47.97
29879;BME280;16752;53.364;-1.488;2023-04-22T05:48:53;99256.91;;;17.63;48.02
29879;BME280;16752;53.364;-1.488;2023-04-22T05:51:39;99266.31;;;17.74;47.97
29879;BME280;16752;53.364;-1.488;2023-04-22T05:54:22;99210.94;;;17.17;48.00
29879;BME280;16752;53.364;-1.488;2023-04-22T05:57:06;99270.63;;;17.28;48.00
29879;BME280;16752;53.364;-1.488;2023-04-22T05:59:50;99265.59;;;16.94;48.59
29879;BME280;16752;53.364;-1.488;2023-04-22T06:02:34;99272.13;;;17.22;48.32
29879;BME280;16752;53.364;-1.488;2023-04-22T06:05:18;99229.59;;;17.24;47.79
29879;BME280;16752;53.364;-1.488;2023-04-22T06:08:02;99277.25;;;17.24;48.16
29879;BME280;16752;53.364;-1.488;2023-04-22T06:10:46;99227.09;;;17.30;47.78
29879;BME280;16752;53.364;-1.488;2023-04-22T06:13:30;99225.59;;;17.36;47.65
29879;BME280;16752;53.364;-1.488;2023-04-22T06:16:14;99239.09;;;17.49;47.71
29879;BME280;16752;53.364;-1.488;2023-04-22T06:18:58;99281.47;;;17.88;47.66
29879;BME280;16752;53.364;-1.488;2023-04-22T06:21:42;99241.31;;;17.77;47.75
29879;BME280;16752;53.364;-1.488;2023-04-22T06:24:26;99246.69;;;17.52;48.10
29879;BME280;16752;53.364;-1.488;2023-04-22T06:27:10;99256.53;;;17.83;47.81
29879;BME280;16752;53.364;-1.488;2023-04-22T06:29:54;99259.53;;;17.71;48.11
29879;BME280;16752;53.364;-1.488;2023-04-22T06:32:38;99265.09;;;16.82;49.36
29879;BME280;16752;53.364;-1.488;2023-04-22T06:35:22;99196.66;;;17.26;47.93
29879;BME280;16752;53.364;-1.488;2023-04-22T06:38:06;99243.81;;;17.70;47.88
29879;BME280;16752;53.364;-1.488;2023-04-22T06:40:50;99186.47;;;17.15;48.55
29879;BME280;16752;53.364;-1.488;2023-04-22T06:43:34;99202.13;;;17.25;47.76
29879;BME280;16752;53.364;-1.488;2023-04-22T06:46:18;99221.16;;;17.67;47.17
29879;BME280;16752;53.364;-1.488;2023-04-22T06:49:02;99204.28;;;17.60;47.35
29879;BME280;16752;53.364;-1.488;2023-04-22T06:51:46;99258.09;;;17.92;47.06
29879;BME280;16752;53.364;-1.488;2023-04-22T06:54:30;99186.13;;;17.49;47.21
29879;BME280;16752;53.364;-1.488;2023-04-22T06:57:15;99211.88;;;17.71;47.21
29879;BME280;16752;53.364;-1.488;2023-04-22T06:59:58;99210.88;;;17.73;47.48
29879;BME280;16752;53.364;-1.488;2023-04-22T07:02:42;99195.00;;;17.64;47.31
29879;BME280;16752;53.364;-1.488;2023-04-22T07:05:26;99173.63;;;17.35;47.79
29879;BME280;16752;53.364;-1.488;2023-04-22T07:08:10;99217.91;;;17.49;47.75
29879;BME280;16752;53.364;-1.488;2023-04-22T07:10:54;99205.84;;;17.07;47.85
29879;BME280;16752;53.364;-1.488;2023-04-22T07:13:40;99252.44;;;17.64;47.93
29879;BME280;16752;53.364;-1.488;2023-04-22T07:16:25;99228.75;;;17.70;47.37
29879;BME280;16752;53.364;-1.488;2023-04-22T07:19:09;99219.25;;;17.45;48.17
29879;BME280;16752;53.364;-1.488;2023-04-22T07:21:53;99228.41;;;17.74;47.29
29879;BME280;16752;53.364;-1.488;2023-04-22T07:28:22;99253.78;;;18.22;47.54
29879;BME280;16752;53.364;-1.488;2023-04-22T07:31:09;99244.28;;;18.05;46.94
29879;BME280;16752;53.364;-1.488;2023-04-22T07:33:53;99188.22;;;17.93;46.84
29879;BME280;16752;53.364;-1.488;2023-04-22T07:36:37;99217.66;;;18.44;46.66
29879;BME280;16752;53.364;-1.488;2023-04-22T07:39:21;99201.06;;;17.42;47.70
29879;BME280;16752;53.364;-1.488;2023-04-22T07:42:05;99151.00;;;17.86;46.37
29879;BME280;16752;53.364;-1.488;2023-04-22T07:44:49;99177.38;;;18.25;46.18
29879;BME280;16752;53.364;-1.488;2023-04-22T07:47:33;99185.84;;;17.44;46.38
29879;BME280;16752;53.364;-1.488;2023-04-22T07:50:18;99230.47;;;17.08;47.38
29879;BME280;16752;53.364;-1.488;2023-04-22T07:53:02;99217.72;;;17.20;47.09
29879;BME280;16752;53.364;-1.488;2023-04-22T07:55:46;99148.84;;;17.36;46.88
29879;BME280;16752;53.364;-1.488;2023-04-22T07:58:32;99197.59;;;17.81;45.77
29879;BME280;16752;53.364;-1.488;2023-04-22T08:01:16;99225.84;;;17.57;45.58
29879;BME280;16752;53.364;-1.488;2023-04-22T08:04:00;99166.91;;;17.86;45.62
29879;BME280;16752;53.364;-1.488;2023-04-22T08:06:44;99213.53;;;16.70;47.17
29879;BME280;16752;53.364;-1.488;2023-04-22T08:09:28;99250.75;;;18.48;44.59
29879;BME280;16752;53.364;-1.488;2023-04-22T08:12:12;99183.72;;;18.16;44.44
29879;BME280;16752;53.364;-1.488;2023-04-22T08:14:57;99179.38;;;17.78;45.63
29879;BME280;16752;53.364;-1.488;2023-04-22T08:17:41;99222.88;;;18.52;44.37
29879;BME280;16752;53.364;-1.488;2023-04-22T08:20:26;99254.53;;;18.08;44.90
29879;BME280;16752;53.364;-1.488;2023-04-22T08:23:10;99243.63;;;18.48;44.32
29879;BME280;16752;53.364;-1.488;2023-04-22T08:25:55;99200.69;;;18.30;45.52
29879;BME280;16752;53.364;-1.488;2023-04-22T08:28:39;99199.22;;;18.27;44.88
29879;BME280;16752;53.364;-1.488;2023-04-22T08:31:24;99202.66;;;18.13;45.00
29879;BME280;16752;53.364;-1.488;2023-04-22T08:34:08;99197.34;;;18.88;44.41
29879;BME280;16752;53.364;-1.488;2023-04-22T08:36:52;99169.53;;;17.55;44.32
29879;BME280;16752;53.364;-1.488;2023-04-22T08:39:37;99210.31;;;18.08;43.85
29879;BME280;16752;53.364;-1.488;2023-04-22T08:42:21;99226.44;;;18.59;44.96
29879;BME280;16752;53.364;-1.488;2023-04-22T08:45:07;99193.06;;;18.87;42.42
29879;BME280;16752;53.364;-1.488;2023-04-22T08:47:52;99163.75;;;18.96;44.19
29879;BME280;16752;53.364;-1.488;2023-04-22T08:50:37;99163.47;;;19.20;42.00
29879;BME280;16752;53.364;-1.488;2023-04-22T08:53:24;99163.09;;;19.08;41.15
29879;BME280;16752;53.364;-1.488;2023-04-22T08:56:11;99214.72;;;19.35;42.80
29879;BME280;16752;53.364;-1.488;2023-04-22T08:58:56;99153.59;;;18.99;42.42
29879;BME280;16752;53.364;-1.488;2023-04-22T09:01:41;99224.97;;;19.53;42.43
29879;BME280;16752;53.364;-1.488;2023-04-22T09:04:25;99135.00;;;18.84;41.29
29879;BME280;16752;53.364;-1.488;2023-04-22T09:07:10;99156.63;;;19.11;40.52
29879;BME280;16752;53.364;-1.488;2023-04-22T09:09:55;99155.72;;;17.76;43.28
29879;BME280;16752;53.364;-1.488;2023-04-22T09:12:40;99190.84;;;19.06;42.03
29879;BME280;16752;53.364;-1.488;2023-04-22T09:15:24;99162.47;;;18.91;41.02
29879;BME280;16752;53.364;-1.488;2023-04-22T09:18:08;99154.84;;;17.84;42.54
29879;BME280;16752;53.364;-1.488;2023-04-22T09:20:55;99201.28;;;18.92;41.78
29879;BME280;16752;53.364;-1.488;2023-04-22T09:23:48;99205.13;;;19.34;42.55
29879;BME280;16752;53.364;-1.488;2023-04-22T09:26:41;99143.00;;;17.40;42.33
29879;BME280;16752;53.364;-1.488;2023-04-22T09:29:29;99173.44;;;17.45;44.12
29879;BME280;16752;53.364;-1.488;2023-04-22T09:32:13;99098.75;;;16.95;43.12
29879;BME280;16752;53.364;-1.488;2023-04-22T09:34:58;99164.53;;;18.14;41.52
29879;BME280;16752;53.364;-1.488;2023-04-22T09:37:47;99158.31;;;18.45;41.71
29879;BME280;16752;53.364;-1.488;2023-04-22T09:40:40;99103.72;;;18.50;41.97
29879;BME280;16752;53.364;-1.488;2023-04-22T09:43:25;99189.09;;;20.70;41.07
29879;BME280;16752;53.364;-1.488;2023-04-22T09:46:10;99139.09;;;20.38;38.35
29879;BME280;16752;53.364;-1.488;2023-04-22T09:48:54;99165.41;;;20.48;38.02
29879;BME280;16752;53.364;-1.488;2023-04-22T09:51:40;99168.78;;;19.92;38.75
29879;BME280;16752;53.364;-1.488;2023-04-22T09:54:25;99095.94;;;20.70;38.15
29879;BME280;16752;53.364;-1.488;2023-04-22T09:57:09;99199.81;;;21.18;37.15
29879;BME280;16752;53.364;-1.488;2023-04-22T09:59:58;99117.19;;;21.53;36.66
29879;BME280;16752;53.364;-1.488;2023-04-22T10:02:43;99113.31;;;20.10;38.56
29879;BME280;16752;53.364;-1.488;2023-04-22T10:05:27;99133.28;;;20.84;35.38
29879;BME280;16752;53.364;-1.488;2023-04-22T10:08:14;99110.69;;;19.68;38.93
29879;BME280;16752;53.364;-1.488;2023-04-22T10:10:59;99141.06;;;19.59;36.48
29879;BME280;16752;53.364;-1.488;2023-04-22T10:13:42;99137.19;;;19.61;37.14
29879;BME280;16752;53.364;-1.488;2023-04-22T10:16:29;99098.28;;;19.17;37.21
29879;BME280;16752;53.364;-1.488;2023-04-22T10:19:22;99189.84;;;20.15;38.57
29879;BME280;16752;53.364;-1.488;2023-04-22T10:22:09;99187.22;;;20.99;37.21
29879;BME280;16752;53.364;-1.488;2023-04-22T10:24:54;99126.06;;;19.72;35.44
29879;BME280;16752;53.364;-1.488;2023-04-22T10:27:41;99176.72;;;20.56;35.38
29879;BME280;16752;53.364;-1.488;2023-04-22T10:30:30;99147.25;;;20.92;35.96
29879;BME280;16752;53.364;-1.488;2023-04-22T10:41:37;99141.41;;;20.69;34.92
29879;BME280;16752;53.364;-1.488;2023-04-22T10:44:22;99129.88;;;19.48;36.70
29879;BME280;16752;53.364;-1.488;2023-04-22T10:47:10;99161.56;;;19.86;36.02
29879;BME280;16752;53.364;-1.488;2023-04-22T10:52:56;99193.56;;;20.98;34.11
29879;BME280;16752;53.364;-1.488;2023-04-22T10:55:51;99176.19;;;21.43;34.56
29879;BME280;16752;53.364;-1.488;2023-04-22T10:58:36;99125.53;;;20.89;33.90
29879;BME280;16752;53.364;-1.488;2023-04-22T11:01:20;99077.53;;;18.62;35.51
29879;BME280;16752;53.364;-1.488;2023-04-22T11:04:20;99129.25;;;19.82;34.45
29879;BME280;16752;53.364;-1.488;2023-04-22T11:10:32;99141.03;;;21.20;34.05
29879;BME280;16752;53.364;-1.488;2023-04-22T11:13:19;99197.94;;;22.34;34.12
29879;BME280;16752;53.364;-1.488;2023-04-22T11:16:07;99151.75;;;22.47;32.69
29879;BME280;16752;53.364;-1.488;2023-04-22T11:18:51;99173.66;;;22.75;32.10
29879;BME280;16752;53.364;-1.488;2023-04-22T11:21:36;99183.47;;;23.14;30.96
29879;BME280;16752;53.364;-1.488;2023-04-22T11:24:19;99162.50;;;19.57;31.12
29879;BME280;16752;53.364;-1.488;2023-04-22T11:27:04;99174.94;;;20.63;31.32
29879;BME280;16752;53.364;-1.488;2023-04-22T11:32:46;99180.16;;;20.07;32.88
29879;BME280;16752;53.364;-1.488;2023-04-22T11:35:32;99146.97;;;21.76;32.12
29879;BME280;16752;53.364;-1.488;2023-04-22T11:38:17;99139.94;;;21.49;31.80
29879;BME280;16752;53.364;-1.488;2023-04-22T11:41:01;99155.03;;;21.28;29.52
29879;BME280;16752;53.364;-1.488;2023-04-22T11:43:46;99114.94;;;20.61;30.78
29879;BME280;16752;53.364;-1.488;2023-04-22T11:46:30;99153.88;;;20.68;29.77
29879;BME280;16752;53.364;-1.488;2023-04-22T11:49:21;99182.66;;;21.82;28.76
29879;BME280;16752;53.364;-1.488;2023-04-22T11:52:05;99150.63;;;19.96;30.74
29879;BME280;16752;53.364;-1.488;2023-04-22T11:54:49;99138.03;;;20.04;31.40
29879;BME280;16752;53.364;-1.488;2023-04-22T11:57:35;99178.22;;;22.09;29.71
29879;BME280;16752;53.364;-1.488;2023-04-22T12:00:19;99167.00;;;20.42;29.73
29879;BME280;16752;53.364;-1.488;2023-04-22T12:03:06;99180.13;;;21.13;30.34
29879;BME280;16752;53.364;-1.488;2023-04-22T12:05:55;99175.31;;;21.97;29.31
29879;BME280;16752;53.364;-1.488;2023-04-22T12:08:40;99112.75;;;20.71;29.58
29879;BME280;16752;53.364;-1.488;2023-04-22T12:11:26;99177.81;;;22.45;29.18
29879;BME280;16752;53.364;-1.488;2023-04-22T12:14:11;99150.13;;;20.91;28.27
29879;BME280;16752;53.364;-1.488;2023-04-22T12:16:55;99112.16;;;22.24;26.25
29879;BME280;16752;53.364;-1.488;2023-04-22T12:19:39;99156.25;;;22.07;27.63
29879;BME280;16752;53.364;-1.488;2023-04-22T12:22:28;99170.31;;;20.79;29.34
29879;BME280;16752;53.364;-1.488;2023-04-22T12:25:17;99126.91;;;22.07;27.64
29879;BME280;16752;53.364;-1.488;2023-04-22T12:28:01;99168.69;;;21.19;28.48
29879;BME280;16752;53.364;-1.488;2023-04-22T12:30:45;99120.66;;;20.99;29.15
29879;BME280;16752;53.364;-1.488;2023-04-22T12:33:28;99108.94;;;22.93;26.06
29879;BME280;16752;53.364;-1.488;2023-04-22T12:36:13;99162.22;;;23.77;24.83
29879;BME280;16752;53.364;-1.488;2023-04-22T12:38:57;99165.50;;;22.04;26.05
29879;BME280;16752;53.364;-1.488;2023-04-22T12:41:41;99173.50;;;22.24;25.85
29879;BME280;16752;53.364;-1.488;2023-04-22T12:44:25;99119.50;;;22.02;25.19
29879;BME280;16752;53.364;-1.488;2023-04-22T12:47:09;99113.56;;;22.46;26.28
29879;BME280;16752;53.364;-1.488;2023-04-22T12:49:53;99127.97;;;23.16;25.70
29879;BME280;16752;53.364;-1.488;2023-04-22T12:52:37;99152.53;;;22.87;24.47
29879;BME280;16752;53.364;-1.488;2023-04-22T12:55:25;99129.75;;;21.18;27.16
29879;BME280;16752;53.364;-1.488;2023-04-22T12:58:09;99123.97;;;22.81;25.28
29879;BME280;16752;53.364;-1.488;2023-04-22T13:00:54;99114.38;;;22.34;25.45
29879;BME280;16752;53.364;-1.488;2023-04-22T13:03:38;99141.41;;;20.75;28.52
29879;BME280;16752;53.364;-1.488;2023-04-22T13:06:22;99159.88;;;21.79;27.27
29879;BME280;16752;53.364;-1.488;2023-04-22T13:09:06;99083.56;;;22.51;25.35
29879;BME280;16752;53.364;-1.488;2023-04-22T13:11:51;99138.34;;;21.87;27.50
29879;BME280;16752;53.364;-1.488;2023-04-22T13:14:35;99106.81;;;21.23;27.09
29879;BME280;16752;53.364;-1.488;2023-04-22T13:17:20;99119.31;;;22.04;26.80
29879;BME280;16752;53.364;-1.488;2023-04-22T13:20:05;99154.41;;;22.60;27.53
29879;BME280;16752;53.364;-1.488;2023-04-22T13:22:54;99162.22;;;22.35;26.63
29879;BME280;16752;53.364;-1.488;2023-04-22T13:25:39;99149.06;;;22.07;25.94
29879;BME280;16752;53.364;-1.488;2023-04-22T13:28:26;99099.94;;;20.53;26.33
29879;BME280;16752;53.364;-1.488;2023-04-22T13:31:11;99168.59;;;22.34;25.52
29879;BME280;16752;53.364;-1.488;2023-04-22T13:34:00;99095.88;;;20.57;27.27
29879;BME280;16752;53.364;-1.488;2023-04-22T13:36:44;99160.59;;;22.34;26.34
29879;BME280;16752;53.364;-1.488;2023-04-22T13:39:29;99129.34;;;21.95;25.41
29879;BME280;16752;53.364;-1.488;2023-04-22T13:42:15;99114.72;;;22.77;24.33
29879;BME280;16752;53.364;-1.488;2023-04-22T13:44:59;99079.25;;;23.14;23.12
29879;BME280;16752;53.364;-1.488;2023-04-22T13:47:44;99070.50;;;22.10;24.01
29879;BME280;16752;53.364;-1.488;2023-04-22T13:50:28;99160.31;;;21.89;25.65
29879;BME280;16752;53.364;-1.488;2023-04-22T13:53:12;99122.66;;;20.84;26.50
29879;BME280;16752;53.364;-1.488;2023-04-22T13:55:56;99142.09;;;22.33;25.29
29879;BME280;16752;53.364;-1.488;2023-04-22T13:58:40;99162.31;;;23.64;24.21
29879;BME280;16752;53.364;-1.488;2023-04-22T14:01:28;99103.91;;;23.23;22.51
29879;BME280;16752;53.364;-1.488;2023-04-22T14:04:12;99073.38;;;21.95;24.16
29879;BME280;16752;53.364;-1.488;2023-04-22T14:06:56;99096.34;;;22.22;25.22
29879;BME280;16752;53.364;-1.488;2023-04-22T14:09:40;99114.84;;;23.53;23.05
29879;BME280;16752;53.364;-1.488;2023-04-22T14:12:24;99126.97;;;24.62;22.77
29879;BME280;16752;53.364;-1.488;2023-04-22T14:15:08;99140.19;;;22.79;23.65
29879;BME280;16752;53.364;-1.488;2023-04-22T14:17:53;99126.25;;;23.73;23.30
29879;BME280;16752;53.364;-1.488;2023-04-22T14:20:37;99127.09;;;23.99;24.09
29879;BME280;16752;53.364;-1.488;2023-04-22T14:23:22;99133.16;;;24.13;23.57
29879;BME280;16752;53.364;-1.488;2023-04-22T14:26:10;99167.41;;;24.79;23.97
29879;BME280;16752;53.364;-1.488;2023-04-22T14:28:55;99127.84;;;23.81;22.32
29879;BME280;16752;53.364;-1.488;2023-04-22T14:31:39;99155.72;;;23.15;22.73
29879;BME280;16752;53.364;-1.488;2023-04-22T14:34:40;99108.97;;;22.80;23.02
29879;BME280;16752;53.364;-1.488;2023-04-22T14:37:28;99108.38;;;22.78;23.09
29879;BME280;16752;53.364;-1.488;2023-04-22T14:40:12;99158.91;;;23.44;23.63
29879;BME280;16752;53.364;-1.488;2023-04-22T14:42:58;99108.97;;;22.80;23.44